Terminal Aerodrome Forecast
Issued by NWS

Home | Current Version | Previous Version | Text Only | Print | Product List | Glossary On
Versions: 1 2 3 4 5 6 7 8 9 10 11 12 13 14 15 16 17 18 19 20 21 22 23
373
FTUS41 KBUF 240900 AAA
TAFIAG
TAF AMD
KIAG 240900Z 2409/2506 09005KT P6SM BKN250
     FM241200 11005KT P6SM BKN130
     FM242100 10006KT P6SM BKN070
     FM250300 11009KT P6SM VCSH OVC070=

USA.gov is the U.S. government's official web portal to all federal, state and local government web resources and services.